sensor_id;sensor_type;location;lat;lon;timestamp;temperature;humidity
14995;DHT22;7593;49.006;8.372;2024-01-07T00:00:23;4.40;99.90
14995;DHT22;7593;49.006;8.372;2024-01-07T00:02:50;4.40;99.90
14995;DHT22;7593;49.006;8.372;2024-01-07T00:05:18;4.50;99.90
14995;DHT22;7593;49.006;8.372;2024-01-07T00:07:45;4.40;99.90
14995;DHT22;7593;49.006;8.372;2024-01-07T00:10:12;4.40;99.90
14995;DHT22;7593;49.006;8.372;2024-01-07T00:12:38;4.40;99.90
14995;DHT22;7593;49.006;8.372;2024-01-07T00:15:06;4.40;99.90
14995;DHT22;7593;49.006;8.372;2024-01-07T00:17:33;4.40;99.90
14995;DHT22;7593;49.006;8.372;2024-01-07T00:20:00;4.40;99.90
14995;DHT22;7593;49.006;8.372;2024-01-07T00:22:28;4.40;99.90
14995;DHT22;7593;49.006;8.372;2024-01-07T00:24:55;4.40;99.90
14995;DHT22;7593;49.006;8.372;2024-01-07T00:27:21;4.40;99.90
14995;DHT22;7593;49.006;8.372;2024-01-07T00:29:48;4.40;99.90
14995;DHT22;7593;49.006;8.372;2024-01-07T00:32:15;4.30;99.90
14995;DHT22;7593;49.006;8.372;2024-01-07T00:34:41;4.30;99.90
14995;DHT22;7593;49.006;8.372;2024-01-07T00:37:08;4.30;99.90
14995;DHT22;7593;49.006;8.372;2024-01-07T00:39:36;4.30;99.90
14995;DHT22;7593;49.006;8.372;2024-01-07T00:42:03;4.30;99.90
14995;DHT22;7593;49.006;8.372;2024-01-07T00:44:30;4.30;99.90
14995;DHT22;7593;49.006;8.372;2024-01-07T00:46:56;4.30;99.90
14995;DHT22;7593;49.006;8.372;2024-01-07T00:49:23;4.30;99.90
14995;DHT22;7593;49.006;8.372;2024-01-07T00:51:50;4.30;99.90
14995;DHT22;7593;49.006;8.372;2024-01-07T00:54:17;4.30;99.90
14995;DHT22;7593;49.006;8.372;2024-01-07T00:56:45;4.20;99.90
14995;DHT22;7593;49.006;8.372;2024-01-07T00:59:12;4.30;99.90
14995;DHT22;7593;49.006;8.372;2024-01-07T01:01:38;4.30;99.90
14995;DHT22;7593;49.006;8.372;2024-01-07T01:04:05;4.20;99.90
14995;DHT22;7593;49.006;8.372;2024-01-07T01:06:32;4.30;99.90
14995;DHT22;7593;49.006;8.372;2024-01-07T01:08:59;4.20;99.90
14995;DHT22;7593;49.006;8.372;2024-01-07T01:11:25;4.20;99.90
14995;DHT22;7593;49.006;8.372;2024-01-07T01:13:53;4.20;99.90
14995;DHT22;7593;49.006;8.372;2024-01-07T01:16:20;4.20;99.90
14995;DHT22;7593;49.006;8.372;2024-01-07T01:18:47;4.20;99.90
14995;DHT22;7593;49.006;8.372;2024-01-07T01:21:14;4.20;99.90
14995;DHT22;7593;49.006;8.372;2024-01-07T01:23:40;4.20;99.90
14995;DHT22;7593;49.006;8.372;2024-01-07T01:26:07;4.20;99.90
14995;DHT22;7593;49.006;8.372;2024-01-07T01:28:34;4.20;99.90
14995;DHT22;7593;49.006;8.372;2024-01-07T01:31:02;4.20;99.90
14995;DHT22;7593;49.006;8.372;2024-01-07T01:33:29;4.20;99.90
14995;DHT22;7593;49.006;8.372;2024-01-07T01:35:55;4.20;99.90
14995;DHT22;7593;49.006;8.372;2024-01-07T01:38:22;4.20;99.90
14995;DHT22;7593;49.006;8.372;2024-01-07T01:40:51;4.20;99.90
14995;DHT22;7593;49.006;8.372;2024-01-07T01:43:23;4.20;99.90
14995;DHT22;7593;49.006;8.372;2024-01-07T01:45:49;4.20;99.90
14995;DHT22;7593;49.006;8.372;2024-01-07T01:48:18;4.20;99.90
14995;DHT22;7593;49.006;8.372;2024-01-07T01:50:46;4.10;99.90
14995;DHT22;7593;49.006;8.372;2024-01-07T01:53:13;4.20;99.90
14995;DHT22;7593;49.006;8.372;2024-01-07T01:55:40;4.20;99.90
14995;DHT22;7593;49.006;8.372;2024-01-07T01:58:09;4.20;99.90
14995;DHT22;7593;49.006;8.372;2024-01-07T02:00:35;4.10;99.90
14995;DHT22;7593;49.006;8.372;2024-01-07T02:03:02;4.20;99.90
14995;DHT22;7593;49.006;8.372;2024-01-07T02:05:38;4.20;99.90
14995;DHT22;7593;49.006;8.372;2024-01-07T02:08:06;4.20;99.90
14995;DHT22;7593;49.006;8.372;2024-01-07T02:10:33;4.20;99.90
14995;DHT22;7593;49.006;8.372;2024-01-07T02:13:02;4.20;99.90
14995;DHT22;7593;49.006;8.372;2024-01-07T02:15:29;4.20;99.90
14995;DHT22;7593;49.006;8.372;2024-01-07T02:17:55;4.20;99.90
14995;DHT22;7593;49.006;8.372;2024-01-07T02:20:22;4.10;99.90
14995;DHT22;7593;49.006;8.372;2024-01-07T02:22:50;4.10;99.90
14995;DHT22;7593;49.006;8.372;2024-01-07T02:25:19;4.10;99.90
14995;DHT22;7593;49.006;8.372;2024-01-07T02:27:46;4.10;99.90
14995;DHT22;7593;49.006;8.372;2024-01-07T02:30:13;4.10;99.90
14995;DHT22;7593;49.006;8.372;2024-01-07T02:32:39;4.10;99.90
14995;DHT22;7593;49.006;8.372;2024-01-07T02:35:06;4.10;99.90
14995;DHT22;7593;49.006;8.372;2024-01-07T02:37:33;4.10;99.90
14995;DHT22;7593;49.006;8.372;2024-01-07T02:40:00;4.10;99.90
14995;DHT22;7593;49.006;8.372;2024-01-07T02:42:28;4.10;99.90
14995;DHT22;7593;49.006;8.372;2024-01-07T02:44:55;4.10;99.90
14995;DHT22;7593;49.006;8.372;2024-01-07T02:47:22;4.00;99.90
14995;DHT22;7593;49.006;8.372;2024-01-07T02:49:49;4.10;99.90
14995;DHT22;7593;49.006;8.372;2024-01-07T02:52:15;4.00;99.90
14995;DHT22;7593;49.006;8.372;2024-01-07T02:54:42;4.00;99.90
14995;DHT22;7593;49.006;8.372;2024-01-07T02:57:09;4.00;99.90
14995;DHT22;7593;49.006;8.372;2024-01-07T02:59:37;4.00;99.90
14995;DHT22;7593;49.006;8.372;2024-01-07T03:02:03;4.00;99.90
14995;DHT22;7593;49.006;8.372;2024-01-07T03:04:30;4.00;99.90
14995;DHT22;7593;49.006;8.372;2024-01-07T03:06:57;4.00;99.90
14995;DHT22;7593;49.006;8.372;2024-01-07T03:09:24;3.90;99.90
14995;DHT22;7593;49.006;8.372;2024-01-07T03:11:51;4.00;99.90
14995;DHT22;7593;49.006;8.372;2024-01-07T03:14:19;3.90;99.90
14995;DHT22;7593;49.006;8.372;2024-01-07T03:16:48;3.90;99.90
14995;DHT22;7593;49.006;8.372;2024-01-07T03:19:15;4.00;99.90
14995;DHT22;7593;49.006;8.372;2024-01-07T03:21:42;4.00;99.90
14995;DHT22;7593;49.006;8.372;2024-01-07T03:24:08;3.90;99.90
14995;DHT22;7593;49.006;8.372;2024-01-07T03:26:35;4.00;99.90
14995;DHT22;7593;49.006;8.372;2024-01-07T03:29:02;3.90;99.90
14995;DHT22;7593;49.006;8.372;2024-01-07T03:31:29;3.90;99.90
14995;DHT22;7593;49.006;8.372;2024-01-07T03:33:57;3.90;99.90
14995;DHT22;7593;49.006;8.372;2024-01-07T03:36:23;4.00;99.90
14995;DHT22;7593;49.006;8.372;2024-01-07T03:38:50;4.00;99.90
14995;DHT22;7593;49.006;8.372;2024-01-07T03:41:18;4.00;99.90
14995;DHT22;7593;49.006;8.372;2024-01-07T03:43:46;4.00;99.90
14995;DHT22;7593;49.006;8.372;2024-01-07T03:46:14;4.00;99.90
14995;DHT22;7593;49.006;8.372;2024-01-07T03:48:41;4.00;99.90
14995;DHT22;7593;49.006;8.372;2024-01-07T03:51:09;4.00;99.90
14995;DHT22;7593;49.006;8.372;2024-01-07T03:53:36;4.00;99.90
14995;DHT22;7593;49.006;8.372;2024-01-07T03:56:03;3.90;99.90
14995;DHT22;7593;49.006;8.372;2024-01-07T03:58:31;4.00;99.90
14995;DHT22;7593;49.006;8.372;2024-01-07T04:00:57;4.00;99.90
14995;DHT22;7593;49.006;8.372;2024-01-07T04:03:24;3.90;99.90
14995;DHT22;7593;49.006;8.372;2024-01-07T04:05:51;3.90;99.90
14995;DHT22;7593;49.006;8.372;2024-01-07T04:08:19;4.00;99.90
14995;DHT22;7593;49.006;8.372;2024-01-07T04:10:46;4.00;99.90
14995;DHT22;7593;49.006;8.372;2024-01-07T04:13:12;3.90;99.90
14995;DHT22;7593;49.006;8.372;2024-01-07T04:15:39;3.90;99.90
14995;DHT22;7593;49.006;8.372;2024-01-07T04:18:06;3.90;99.90
14995;DHT22;7593;49.006;8.372;2024-01-07T04:20:33;3.90;99.90
14995;DHT22;7593;49.006;8.372;2024-01-07T04:22:59;3.90;99.90
14995;DHT22;7593;49.006;8.372;2024-01-07T04:25:27;3.90;99.90
14995;DHT22;7593;49.006;8.372;2024-01-07T04:27:54;3.90;99.90
14995;DHT22;7593;49.006;8.372;2024-01-07T04:30:21;3.90;99.90
14995;DHT22;7593;49.006;8.372;2024-01-07T04:32:48;3.90;99.90
14995;DHT22;7593;49.006;8.372;2024-01-07T04:35:14;3.90;99.90
14995;DHT22;7593;49.006;8.372;2024-01-07T04:37:42;3.90;99.90
14995;DHT22;7593;49.006;8.372;2024-01-07T04:40:09;4.00;99.90
14995;DHT22;7593;49.006;8.372;2024-01-07T04:42:38;3.90;99.90
14995;DHT22;7593;49.006;8.372;2024-01-07T04:45:05;3.90;99.90
14995;DHT22;7593;49.006;8.372;2024-01-07T04:47:33;3.90;99.90
14995;DHT22;7593;49.006;8.372;2024-01-07T04:50:00;3.90;99.90
14995;DHT22;7593;49.006;8.372;2024-01-07T04:52:27;3.90;99.90
14995;DHT22;7593;49.006;8.372;2024-01-07T04:54:54;3.90;99.90
14995;DHT22;7593;49.006;8.372;2024-01-07T04:57:21;3.90;99.90
14995;DHT22;7593;49.006;8.372;2024-01-07T04:59:50;3.90;99.90
14995;DHT22;7593;49.006;8.372;2024-01-07T05:02:16;3.90;99.90
14995;DHT22;7593;49.006;8.372;2024-01-07T05:04:43;3.90;99.90
14995;DHT22;7593;49.006;8.372;2024-01-07T05:07:10;3.90;99.90
14995;DHT22;7593;49.006;8.372;2024-01-07T05:09:37;3.90;99.90
14995;DHT22;7593;49.006;8.372;2024-01-07T05:12:04;3.90;99.90
14995;DHT22;7593;49.006;8.372;2024-01-07T05:14:31;3.90;99.90
14995;DHT22;7593;49.006;8.372;2024-01-07T05:16:59;3.90;99.90
14995;DHT22;7593;49.006;8.372;2024-01-07T05:19:25;3.90;99.90
14995;DHT22;7593;49.006;8.372;2024-01-07T05:21:53;3.90;99.90
14995;DHT22;7593;49.006;8.372;2024-01-07T05:24:19;3.90;99.90
14995;DHT22;7593;49.006;8.372;2024-01-07T05:26:46;3.90;99.90
14995;DHT22;7593;49.006;8.372;2024-01-07T05:29:13;3.90;99.90
14995;DHT22;7593;49.006;8.372;2024-01-07T05:31:40;3.90;99.90
14995;DHT22;7593;49.006;8.372;2024-01-07T05:34:08;3.90;99.90
14995;DHT22;7593;49.006;8.372;2024-01-07T05:36:35;3.90;99.90
14995;DHT22;7593;49.006;8.372;2024-01-07T05:39:02;3.90;99.90
14995;DHT22;7593;49.006;8.372;2024-01-07T05:41:29;3.90;99.90
14995;DHT22;7593;49.006;8.372;2024-01-07T05:43:56;3.90;99.90
14995;DHT22;7593;49.006;8.372;2024-01-07T05:46:23;3.90;99.90
14995;DHT22;7593;49.006;8.372;2024-01-07T05:48:50;3.90;99.90
14995;DHT22;7593;49.006;8.372;2024-01-07T05:51:18;3.90;99.90
14995;DHT22;7593;49.006;8.372;2024-01-07T05:53:45;3.90;99.90
14995;DHT22;7593;49.006;8.372;2024-01-07T05:56:12;3.90;99.90
14995;DHT22;7593;49.006;8.372;2024-01-07T05:58:38;3.90;99.90
14995;DHT22;7593;49.006;8.372;2024-01-07T06:01:06;3.90;99.90
14995;DHT22;7593;49.006;8.372;2024-01-07T06:03:33;3.90;99.90
14995;DHT22;7593;49.006;8.372;2024-01-07T06:06:00;3.90;99.90
14995;DHT22;7593;49.006;8.372;2024-01-07T06:08:28;3.90;99.90
14995;DHT22;7593;49.006;8.372;2024-01-07T06:10:55;3.90;99.90
14995;DHT22;7593;49.006;8.372;2024-01-07T06:13:21;3.90;99.90
14995;DHT22;7593;49.006;8.372;2024-01-07T06:15:48;3.90;99.90
14995;DHT22;7593;49.006;8.372;2024-01-07T06:18:15;3.90;99.90
14995;DHT22;7593;49.006;8.372;2024-01-07T06:20:41;3.90;99.90
14995;DHT22;7593;49.006;8.372;2024-01-07T06:23:08;3.90;99.90
14995;DHT22;7593;49.006;8.372;2024-01-07T06:25:36;3.90;99.90
14995;DHT22;7593;49.006;8.372;2024-01-07T06:28:05;3.90;99.90
14995;DHT22;7593;49.006;8.372;2024-01-07T06:30:31;3.90;99.90
14995;DHT22;7593;49.006;8.372;2024-01-07T06:32:59;3.90;99.90
14995;DHT22;7593;49.006;8.372;2024-01-07T06:35:25;3.90;99.90
14995;DHT22;7593;49.006;8.372;2024-01-07T06:37:52;3.90;99.90
14995;DHT22;7593;49.006;8.372;2024-01-07T06:40:19;3.90;99.90
14995;DHT22;7593;49.006;8.372;2024-01-07T06:42:47;3.90;99.90
14995;DHT22;7593;49.006;8.372;2024-01-07T06:45:14;3.90;99.90
14995;DHT22;7593;49.006;8.372;2024-01-07T06:47:41;3.90;99.90
14995;DHT22;7593;49.006;8.372;2024-01-07T06:50:09;3.90;99.90
14995;DHT22;7593;49.006;8.372;2024-01-07T06:52:35;3.90;99.90
14995;DHT22;7593;49.006;8.372;2024-01-07T06:55:02;4.00;99.90
14995;DHT22;7593;49.006;8.372;2024-01-07T06:57:29;3.90;99.90
14995;DHT22;7593;49.006;8.372;2024-01-07T06:59:57;4.00;99.90
14995;DHT22;7593;49.006;8.372;2024-01-07T07:02:24;4.00;99.90
14995;DHT22;7593;49.006;8.372;2024-01-07T07:04:50;4.00;99.90
14995;DHT22;7593;49.006;8.372;2024-01-07T07:07:17;4.00;99.90
14995;DHT22;7593;49.006;8.372;2024-01-07T07:09:44;4.00;99.90
14995;DHT22;7593;49.006;8.372;2024-01-07T07:12:12;4.00;99.90
14995;DHT22;7593;49.006;8.372;2024-01-07T07:14:39;3.90;99.90
14995;DHT22;7593;49.006;8.372;2024-01-07T07:17:07;4.00;99.90
14995;DHT22;7593;49.006;8.372;2024-01-07T07:19:34;4.00;99.90
14995;DHT22;7593;49.006;8.372;2024-01-07T07:22:00;4.00;99.90
14995;DHT22;7593;49.006;8.372;2024-01-07T07:24:27;4.00;99.90
14995;DHT22;7593;49.006;8.372;2024-01-07T07:26:54;4.00;99.90
14995;DHT22;7593;49.006;8.372;2024-01-07T07:29:21;4.00;99.90
14995;DHT22;7593;49.006;8.372;2024-01-07T07:31:47;4.00;99.90
14995;DHT22;7593;49.006;8.372;2024-01-07T07:34:16;4.00;99.90
14995;DHT22;7593;49.006;8.372;2024-01-07T07:36:42;4.00;99.90
14995;DHT22;7593;49.006;8.372;2024-01-07T07:39:10;4.00;99.90
14995;DHT22;7593;49.006;8.372;2024-01-07T07:41:38;4.00;99.90
14995;DHT22;7593;49.006;8.372;2024-01-07T07:44:05;4.00;99.90
14995;DHT22;7593;49.006;8.372;2024-01-07T07:46:32;4.00;99.90
14995;DHT22;7593;49.006;8.372;2024-01-07T07:48:59;4.00;99.90
14995;DHT22;7593;49.006;8.372;2024-01-07T07:51:27;4.10;99.90
14995;DHT22;7593;49.006;8.372;2024-01-07T07:53:53;4.00;99.90
14995;DHT22;7593;49.006;8.372;2024-01-07T07:56:20;4.10;99.90
14995;DHT22;7593;49.006;8.372;2024-01-07T07:58:47;4.10;99.90
14995;DHT22;7593;49.006;8.372;2024-01-07T08:01:14;4.10;99.90
14995;DHT22;7593;49.006;8.372;2024-01-07T08:03:40;4.10;99.90
14995;DHT22;7593;49.006;8.372;2024-01-07T08:06:07;4.10;99.90
14995;DHT22;7593;49.006;8.372;2024-01-07T08:08:36;4.10;99.90
14995;DHT22;7593;49.006;8.372;2024-01-07T08:11:03;4.20;99.90
14995;DHT22;7593;49.006;8.372;2024-01-07T08:13:33;4.20;99.90
14995;DHT22;7593;49.006;8.372;2024-01-07T08:16:01;4.20;99.90
14995;DHT22;7593;49.006;8.372;2024-01-07T08:18:30;4.20;99.90
14995;DHT22;7593;49.006;8.372;2024-01-07T08:20:57;4.20;99.90
14995;DHT22;7593;49.006;8.372;2024-01-07T08:23:24;4.20;99.90
14995;DHT22;7593;49.006;8.372;2024-01-07T08:25:53;4.20;99.90
14995;DHT22;7593;49.006;8.372;2024-01-07T08:28:20;4.20;99.90
14995;DHT22;7593;49.006;8.372;2024-01-07T08:30:47;4.20;99.90
14995;DHT22;7593;49.006;8.372;2024-01-07T08:33:14;4.20;99.90
14995;DHT22;7593;49.006;8.372;2024-01-07T08:35:41;4.30;99.90
14995;DHT22;7593;49.006;8.372;2024-01-07T08:38:08;4.20;99.90
14995;DHT22;7593;49.006;8.372;2024-01-07T08:40:34;4.30;99.90
14995;DHT22;7593;49.006;8.372;2024-01-07T08:43:03;4.20;99.90
14995;DHT22;7593;49.006;8.372;2024-01-07T08:45:30;4.20;99.90
14995;DHT22;7593;49.006;8.372;2024-01-07T08:47:57;4.30;99.90
14995;DHT22;7593;49.006;8.372;2024-01-07T08:50:24;4.30;99.90
14995;DHT22;7593;49.006;8.372;2024-01-07T08:52:51;4.30;99.90
14995;DHT22;7593;49.006;8.372;2024-01-07T08:55:19;4.30;99.90
14995;DHT22;7593;49.006;8.372;2024-01-07T08:57:46;4.30;99.90
14995;DHT22;7593;49.006;8.372;2024-01-07T09:00:16;4.30;99.90
14995;DHT22;7593;49.006;8.372;2024-01-07T09:02:44;4.30;99.90
14995;DHT22;7593;49.006;8.372;2024-01-07T09:05:11;4.40;99.90
14995;DHT22;7593;49.006;8.372;2024-01-07T09:07:39;4.40;99.90
14995;DHT22;7593;49.006;8.372;2024-01-07T09:10:06;4.40;99.90
14995;DHT22;7593;49.006;8.372;2024-01-07T09:12:36;4.40;99.90
14995;DHT22;7593;49.006;8.372;2024-01-07T09:15:04;4.40;99.90
14995;DHT22;7593;49.006;8.372;2024-01-07T09:17:35;4.40;99.90
14995;DHT22;7593;49.006;8.372;2024-01-07T09:20:03;4.40;99.90
14995;DHT22;7593;49.006;8.372;2024-01-07T09:22:33;4.50;99.90
14995;DHT22;7593;49.006;8.372;2024-01-07T09:25:01;4.40;99.90
14995;DHT22;7593;49.006;8.372;2024-01-07T09:27:28;4.40;99.90
14995;DHT22;7593;49.006;8.372;2024-01-07T09:29:55;4.40;99.90
14995;DHT22;7593;49.006;8.372;2024-01-07T09:32:22;4.40;99.90
14995;DHT22;7593;49.006;8.372;2024-01-07T09:34:50;4.50;99.90
14995;DHT22;7593;49.006;8.372;2024-01-07T09:37:17;4.50;99.90
14995;DHT22;7593;49.006;8.372;2024-01-07T09:39:47;4.50;99.90
14995;DHT22;7593;49.006;8.372;2024-01-07T09:42:16;4.50;99.90
14995;DHT22;7593;49.006;8.372;2024-01-07T09:44:43;4.50;99.90
14995;DHT22;7593;49.006;8.372;2024-01-07T09:47:12;4.50;99.90
14995;DHT22;7593;49.006;8.372;2024-01-07T09:49:39;4.50;99.90
14995;DHT22;7593;49.006;8.372;2024-01-07T09:52:08;4.60;99.90
14995;DHT22;7593;49.006;8.372;2024-01-07T09:54:36;4.50;99.90
14995;DHT22;7593;49.006;8.372;2024-01-07T09:57:05;4.40;99.90
14995;DHT22;7593;49.006;8.372;2024-01-07T09:59:33;4.50;99.90
14995;DHT22;7593;49.006;8.372;2024-01-07T10:02:00;4.50;99.90
14995;DHT22;7593;49.006;8.372;2024-01-07T10:04:27;4.50;99.90
14995;DHT22;7593;49.006;8.372;2024-01-07T10:06:54;4.60;99.90
14995;DHT22;7593;49.006;8.372;2024-01-07T10:09:24;4.60;99.90
14995;DHT22;7593;49.006;8.372;2024-01-07T10:11:51;4.70;99.90
14995;DHT22;7593;49.006;8.372;2024-01-07T10:14:18;4.70;99.90
14995;DHT22;7593;49.006;8.372;2024-01-07T10:16:47;4.80;99.90
14995;DHT22;7593;49.006;8.372;2024-01-07T10:19:19;4.80;99.90
14995;DHT22;7593;49.006;8.372;2024-01-07T10:21:46;4.90;99.90
14995;DHT22;7593;49.006;8.372;2024-01-07T10:24:13;4.90;99.90
14995;DHT22;7593;49.006;8.372;2024-01-07T10:26:41;4.90;99.90
14995;DHT22;7593;49.006;8.372;2024-01-07T10:29:08;4.90;99.90
14995;DHT22;7593;49.006;8.372;2024-01-07T10:31:37;4.90;99.90
14995;DHT22;7593;49.006;8.372;2024-01-07T10:34:07;4.80;99.90
14995;DHT22;7593;49.006;8.372;2024-01-07T10:36:34;4.80;99.90
14995;DHT22;7593;49.006;8.372;2024-01-07T10:39:00;4.80;99.90
14995;DHT22;7593;49.006;8.372;2024-01-07T10:41:29;4.80;99.90
14995;DHT22;7593;49.006;8.372;2024-01-07T10:43:59;4.80;99.90
14995;DHT22;7593;49.006;8.372;2024-01-07T10:46:27;4.70;99.90
14995;DHT22;7593;49.006;8.372;2024-01-07T10:48:59;4.60;99.90
14995;DHT22;7593;49.006;8.372;2024-01-07T10:51:28;4.60;99.90
14995;DHT22;7593;49.006;8.372;2024-01-07T10:53:56;4.60;99.90
14995;DHT22;7593;49.006;8.372;2024-01-07T10:56:24;4.60;99.90
14995;DHT22;7593;49.006;8.372;2024-01-07T10:58:52;4.60;99.90
14995;DHT22;7593;49.006;8.372;2024-01-07T11:01:20;4.60;99.90
14995;DHT22;7593;49.006;8.372;2024-01-07T11:03:54;4.70;99.90
14995;DHT22;7593;49.006;8.372;2024-01-07T11:06:27;4.70;99.90
14995;DHT22;7593;49.006;8.372;2024-01-07T11:08:58;4.70;99.90
14995;DHT22;7593;49.006;8.372;2024-01-07T11:11:35;4.70;99.90
14995;DHT22;7593;49.006;8.372;2024-01-07T11:14:03;4.60;99.90
14995;DHT22;7593;49.006;8.372;2024-01-07T11:16:49;4.60;99.90
14995;DHT22;7593;49.006;8.372;2024-01-07T11:19:28;4.50;99.90
14995;DHT22;7593;49.006;8.372;2024-01-07T11:22:23;4.40;99.90
14995;DHT22;7593;49.006;8.372;2024-01-07T11:24:54;4.40;99.90
14995;DHT22;7593;49.006;8.372;2024-01-07T11:27:22;4.20;99.90
14995;DHT22;7593;49.006;8.372;2024-01-07T11:29:55;4.10;99.90
14995;DHT22;7593;49.006;8.372;2024-01-07T11:32:24;3.90;99.90
14995;DHT22;7593;49.006;8.372;2024-01-07T11:34:55;3.80;99.90
14995;DHT22;7593;49.006;8.372;2024-01-07T11:37:24;3.80;99.90
14995;DHT22;7593;49.006;8.372;2024-01-07T11:39:54;3.80;99.90
14995;DHT22;7593;49.006;8.372;2024-01-07T11:42:22;3.80;99.90
14995;DHT22;7593;49.006;8.372;2024-01-07T11:44:50;3.80;99.90
14995;DHT22;7593;49.006;8.372;2024-01-07T11:47:17;3.80;99.90
14995;DHT22;7593;49.006;8.372;2024-01-07T11:49:45;3.80;99.90
14995;DHT22;7593;49.006;8.372;2024-01-07T11:52:12;3.80;99.90
14995;DHT22;7593;49.006;8.372;2024-01-07T11:54:40;3.90;99.90
14995;DHT22;7593;49.006;8.372;2024-01-07T11:57:07;3.90;99.90
14995;DHT22;7593;49.006;8.372;2024-01-07T11:59:35;3.90;99.90
14995;DHT22;7593;49.006;8.372;2024-01-07T12:02:02;3.90;99.90
14995;DHT22;7593;49.006;8.372;2024-01-07T12:04:30;3.90;99.90
14995;DHT22;7593;49.006;8.372;2024-01-07T12:06:58;3.90;99.90
14995;DHT22;7593;49.006;8.372;2024-01-07T12:09:25;3.90;99.90
14995;DHT22;7593;49.006;8.372;2024-01-07T12:11:52;3.90;99.90
14995;DHT22;7593;49.006;8.372;2024-01-07T12:14:19;3.90;99.90
14995;DHT22;7593;49.006;8.372;2024-01-07T12:16:46;4.00;99.90
14995;DHT22;7593;49.006;8.372;2024-01-07T12:19:13;3.90;99.90
14995;DHT22;7593;49.006;8.372;2024-01-07T12:21:40;3.90;99.90
14995;DHT22;7593;49.006;8.372;2024-01-07T12:24:08;3.90;99.90
14995;DHT22;7593;49.006;8.372;2024-01-07T12:26:35;3.90;99.90
14995;DHT22;7593;49.006;8.372;2024-01-07T12:29:03;4.00;99.90
14995;DHT22;7593;49.006;8.372;2024-01-07T12:31:30;4.00;99.90
14995;DHT22;7593;49.006;8.372;2024-01-07T12:33:57;4.00;99.90
14995;DHT22;7593;49.006;8.372;2024-01-07T12:36:25;4.00;99.90
14995;DHT22;7593;49.006;8.372;2024-01-07T12:38:52;4.00;99.90
14995;DHT22;7593;49.006;8.372;2024-01-07T12:41:22;4.00;99.90
14995;DHT22;7593;49.006;8.372;2024-01-07T12:43:49;4.00;99.90
14995;DHT22;7593;49.006;8.372;2024-01-07T12:46:16;4.00;99.90
14995;DHT22;7593;49.006;8.372;2024-01-07T12:48:43;4.00;99.90
14995;DHT22;7593;49.006;8.372;2024-01-07T12:51:10;4.00;99.90
14995;DHT22;7593;49.006;8.372;2024-01-07T12:53:36;4.10;99.90
14995;DHT22;7593;49.006;8.372;2024-01-07T12:56:04;4.10;99.90
14995;DHT22;7593;49.006;8.372;2024-01-07T12:58:32;4.10;99.90
14995;DHT22;7593;49.006;8.372;2024-01-07T13:00:59;4.10;99.90
14995;DHT22;7593;49.006;8.372;2024-01-07T13:03:26;4.10;99.90
14995;DHT22;7593;49.006;8.372;2024-01-07T13:05:53;4.00;99.90
14995;DHT22;7593;49.006;8.372;2024-01-07T13:08:20;4.00;99.90
14995;DHT22;7593;49.006;8.372;2024-01-07T13:10:47;4.00;99.90
14995;DHT22;7593;49.006;8.372;2024-01-07T13:13:14;4.00;99.90
14995;DHT22;7593;49.006;8.372;2024-01-07T13:15:42;3.90;99.90
14995;DHT22;7593;49.006;8.372;2024-01-07T13:18:10;3.80;99.90
14995;DHT22;7593;49.006;8.372;2024-01-07T13:20:37;3.80;99.90
14995;DHT22;7593;49.006;8.372;2024-01-07T13:23:05;3.70;99.90
14995;DHT22;7593;49.006;8.372;2024-01-07T13:25:32;3.70;99.90
14995;DHT22;7593;49.006;8.372;2024-01-07T13:27:58;3.70;99.90
14995;DHT22;7593;49.006;8.372;2024-01-07T13:30:25;3.70;99.90
14995;DHT22;7593;49.006;8.372;2024-01-07T13:32:53;3.70;99.90
14995;DHT22;7593;49.006;8.372;2024-01-07T13:35:22;3.60;99.90
14995;DHT22;7593;49.006;8.372;2024-01-07T13:37:49;3.60;99.90
14995;DHT22;7593;49.006;8.372;2024-01-07T13:40:17;3.60;99.90
14995;DHT22;7593;49.006;8.372;2024-01-07T13:42:44;3.60;99.90
14995;DHT22;7593;49.006;8.372;2024-01-07T13:45:11;3.70;99.90
14995;DHT22;7593;49.006;8.372;2024-01-07T13:47:38;3.70;99.90
14995;DHT22;7593;49.006;8.372;2024-01-07T13:50:07;3.70;99.90
14995;DHT22;7593;49.006;8.372;2024-01-07T13:52:36;3.70;99.90
14995;DHT22;7593;49.006;8.372;2024-01-07T13:55:03;3.80;99.90
14995;DHT22;7593;49.006;8.372;2024-01-07T13:57:30;3.80;99.90
14995;DHT22;7593;49.006;8.372;2024-01-07T13:59:57;3.80;99.90
14995;DHT22;7593;49.006;8.372;2024-01-07T14:02:23;3.70;99.90
14995;DHT22;7593;49.006;8.372;2024-01-07T14:04:50;3.70;99.90
14995;DHT22;7593;49.006;8.372;2024-01-07T14:07:20;3.70;99.90
14995;DHT22;7593;49.006;8.372;2024-01-07T14:09:47;3.80;99.90
14995;DHT22;7593;49.006;8.372;2024-01-07T14:12:14;3.80;99.90
14995;DHT22;7593;49.006;8.372;2024-01-07T14:14:40;3.80;99.90
14995;DHT22;7593;49.006;8.372;2024-01-07T14:17:07;3.80;99.90
14995;DHT22;7593;49.006;8.372;2024-01-07T14:19:34;3.70;99.90
14995;DHT22;7593;49.006;8.372;2024-01-07T14:22:01;3.70;99.90
14995;DHT22;7593;49.006;8.372;2024-01-07T14:24:29;3.70;99.90
14995;DHT22;7593;49.006;8.372;2024-01-07T14:26:56;3.70;99.90
14995;DHT22;7593;49.006;8.372;2024-01-07T14:29:22;3.70;99.90
14995;DHT22;7593;49.006;8.372;2024-01-07T14:31:49;3.60;99.90
14995;DHT22;7593;49.006;8.372;2024-01-07T14:34:16;3.70;99.90
14995;DHT22;7593;49.006;8.372;2024-01-07T14:36:42;3.60;99.90
14995;DHT22;7593;49.006;8.372;2024-01-07T14:39:09;3.60;99.90
14995;DHT22;7593;49.006;8.372;2024-01-07T14:41:37;3.60;99.90
14995;DHT22;7593;49.006;8.372;2024-01-07T14:44:04;3.60;99.90
14995;DHT22;7593;49.006;8.372;2024-01-07T14:46:31;3.50;99.90
14995;DHT22;7593;49.006;8.372;2024-01-07T14:48:58;3.50;99.90
14995;DHT22;7593;49.006;8.372;2024-01-07T14:51:24;3.50;99.90
14995;DHT22;7593;49.006;8.372;2024-01-07T14:53:51;3.50;99.90
14995;DHT22;7593;49.006;8.372;2024-01-07T14:56:18;3.40;99.90
14995;DHT22;7593;49.006;8.372;2024-01-07T14:58:47;3.50;99.90
14995;DHT22;7593;49.006;8.372;2024-01-07T15:01:13;3.40;99.90
14995;DHT22;7593;49.006;8.372;2024-01-07T15:03:41;3.40;99.90
14995;DHT22;7593;49.006;8.372;2024-01-07T15:06:07;3.40;99.90
14995;DHT22;7593;49.006;8.372;2024-01-07T15:08:36;3.40;99.90
14995;DHT22;7593;49.006;8.372;2024-01-07T15:11:02;3.40;99.90
14995;DHT22;7593;49.006;8.372;2024-01-07T15:13:29;3.40;99.90
14995;DHT22;7593;49.006;8.372;2024-01-07T15:15:58;3.40;99.90
14995;DHT22;7593;49.006;8.372;2024-01-07T15:18:24;3.40;99.90
14995;DHT22;7593;49.006;8.372;2024-01-07T15:20:51;3.40;99.90
14995;DHT22;7593;49.006;8.372;2024-01-07T15:23:18;3.30;99.90
14995;DHT22;7593;49.006;8.372;2024-01-07T15:25:45;3.30;99.90
14995;DHT22;7593;49.006;8.372;2024-01-07T15:28:11;3.30;99.90
14995;DHT22;7593;49.006;8.372;2024-01-07T15:30:38;3.30;99.90
14995;DHT22;7593;49.006;8.372;2024-01-07T15:33:07;3.30;99.90
14995;DHT22;7593;49.006;8.372;2024-01-07T15:35:34;3.20;99.90
14995;DHT22;7593;49.006;8.372;2024-01-07T15:38:01;3.20;99.90
14995;DHT22;7593;49.006;8.372;2024-01-07T15:40:28;3.10;99.90
14995;DHT22;7593;49.006;8.372;2024-01-07T15:42:56;3.20;99.90
14995;DHT22;7593;49.006;8.372;2024-01-07T15:45:23;3.10;99.90
14995;DHT22;7593;49.006;8.372;2024-01-07T15:47:50;3.10;99.90
14995;DHT22;7593;49.006;8.372;2024-01-07T15:50:18;3.10;99.90
14995;DHT22;7593;49.006;8.372;2024-01-07T15:52:44;3.00;99.90
14995;DHT22;7593;49.006;8.372;2024-01-07T15:55:13;3.00;99.90
14995;DHT22;7593;49.006;8.372;2024-01-07T15:57:40;3.00;99.90
14995;DHT22;7593;49.006;8.372;2024-01-07T16:00:11;3.00;99.90
14995;DHT22;7593;49.006;8.372;2024-01-07T16:02:38;3.00;99.90